Westover, Maryland
Current Conditions -  °F | °C
As of 10:54 PM on Friday 24 Oct 2014 (Local Time) from KSBY Reporting Station
Clear Clear  
Wind Chill: 56°   Ceiling: Unl
Heat Index: 56°   Visibility: 10mi
Dew Point: 44°   Wind: 5mph
Humidity: 64%   Direction: 270°W
Pressure: 29.92"   Gusts: NA
Location:  38.12°N, 75.71°W
Report Text: KSBY 250254Z AUTO 27004KT 10SM CLR 13/07 A2992 RMK AO2 SLP132 T01330067 53004
Loading
Personal Weather Stations






























Interactive Weather Map
Tropical Storm Tracking
New forecast layout! Learn more

10-Day Weather Forecast

Advertisements
Track Severe Weather on mobile